PRIVATE WETTERSTATION BILLIGHEIM-ALLFELD                       ZURCK
Wetterdaten: Dienstag, 10.05.2016
Datum Zeit Temp. A. Temp. A. min Temp. A. max Feuchte A. Luftdruck Regen Wind Richtung Richtung Sonnenschein ET Solar Taupunkt Windchill Windben Empfang
10.05.2016 00:00 16,9 C 16,9 C 17,2 C 60 % 1010,7 hPa 0,0 l/m 0,6 km/h (0 Bft) N 355 0 min 0,000 mm 0 W/m 9,1 C 16,9 C 6,4 km/h (2 Bft) 75 %
10.05.2016 00:10 16,8 C 16,8 C 16,9 C 60 % 1010,7 hPa 0,0 l/m 0,8 km/h (0 Bft) O 86 0 min 0,000 mm 0 W/m 9,0 C 16,8 C 11,3 km/h (2 Bft) 100 %
10.05.2016 00:20 16,7 C 16,7 C 16,8 C 60 % 1010,7 hPa 0,0 l/m 0,8 km/h (0 Bft) O 100 0 min 0,000 mm 0 W/m 8,9 C 16,7 C 9,7 km/h (2 Bft) 100 %
10.05.2016 00:30 16,6 C 16,6 C 16,7 C 61 % 1010,7 hPa 0,0 l/m 0,4 km/h (0 Bft) N-NO 15 0 min 0,000 mm 0 W/m 9,0 C 16,6 C 6,4 km/h (2 Bft) 100 %
10.05.2016 00:40 16,5 C 16,5 C 16,6 C 61 % 1010,6 hPa 0,0 l/m 1,1 km/h (1 Bft) W 281 0 min 0,000 mm 0 W/m 9,0 C 16,5 C 9,7 km/h (2 Bft) 100 %
10.05.2016 00:50 16,4 C 16,4 C 16,5 C 62 % 1010,6 hPa 0,0 l/m 0,4 km/h (0 Bft) O-NO 65 0 min 0,000 mm 0 W/m 9,1 C 16,4 C 6,4 km/h (2 Bft) 100 %
10.05.2016 01:00 16,3 C 16,3 C 16,4 C 62 % 1010,5 hPa 0,0 l/m 0,4 km/h (0 Bft) O-NO 67 0 min 0,025 mm 0 W/m 9,0 C 16,3 C 6,4 km/h (2 Bft) 100 %
10.05.2016 01:10 16,2 C 16,2 C 16,3 C 63 % 1010,5 hPa 0,0 l/m 0,4 km/h (0 Bft) NO 38 0 min 0,000 mm 0 W/m 9,1 C 16,2 C 6,4 km/h (2 Bft) 100 %
10.05.2016 01:20 16,0 C 16,0 C 16,2 C 63 % 1010,5 hPa 0,0 l/m 0,2 km/h (0 Bft) N-NW 345 0 min 0,000 mm 0 W/m 9,0 C 16,0 C 6,4 km/h (2 Bft) 100 %
10.05.2016 01:30 15,8 C 15,8 C 16,0 C 63 % 1010,5 hPa 0,0 l/m 0,1 km/h (0 Bft) N 351 0 min 0,000 mm 0 W/m 8,8 C 15,8 C 4,8 km/h (1 Bft) 100 %
10.05.2016 01:40 15,6 C 15,6 C 15,8 C 65 % 1010,5 hPa 0,0 l/m 0,3 km/h (0 Bft) N 11 0 min 0,000 mm 0 W/m 9,0 C 15,6 C 9,7 km/h (2 Bft) 100 %
10.05.2016 01:50 15,3 C 15,3 C 15,6 C 66 % 1010,4 hPa 0,0 l/m 0,1 km/h (0 Bft) N 350 0 min 0,000 mm 0 W/m 9,0 C 15,3 C 3,2 km/h (1 Bft) 100 %
10.05.2016 02:00 15,1 C 15,1 C 15,3 C 67 % 1010,4 hPa 0,0 l/m 0,0 km/h (0 Bft) N 355 0 min 0,026 mm 0 W/m 9,0 C 15,1 C 1,6 km/h (1 Bft) 100 %
10.05.2016 02:10 14,7 C 14,7 C 15,1 C 69 % 1010,4 hPa 0,0 l/m 0,0 km/h (0 Bft) N-NW 343 0 min 0,000 mm 0 W/m 9,1 C 14,7 C 1,6 km/h (1 Bft) 100 %
10.05.2016 02:20 14,4 C 14,4 C 14,7 C 69 % 1010,3 hPa 0,0 l/m 0,0 km/h (0 Bft) N 355 0 min 0,000 mm 0 W/m 8,8 C 14,4 C 1,6 km/h (1 Bft) 100 %
10.05.2016 02:30 14,2 C 14,2 C 14,4 C 70 % 1010,2 hPa 0,0 l/m 0,0 km/h (0 Bft) N 350 0 min 0,000 mm 0 W/m 8,8 C 14,2 C 1,6 km/h (1 Bft) 100 %
10.05.2016 02:40 14,1 C 14,1 C 14,3 C 71 % 1010,2 hPa 0,0 l/m 0,0 km/h (0 Bft) N 360 0 min 0,000 mm 0 W/m 8,9 C 14,1 C 1,6 km/h (1 Bft) 100 %
10.05.2016 02:50 13,9 C 13,9 C 14,1 C 72 % 1010,2 hPa 0,0 l/m 0,0 km/h (0 Bft) N 360 0 min 0,000 mm 0 W/m 8,9 C 13,9 C 0,0 km/h (0 Bft) 100 %
10.05.2016 03:00 13,6 C 13,6 C 13,9 C 73 % 1010,2 hPa 0,0 l/m 0,0 km/h (0 Bft) N-NW 338 0 min 0,025 mm 0 W/m 8,9 C 13,6 C 1,6 km/h (1 Bft) 100 %
10.05.2016 03:10 13,3 C 13,3 C 13,6 C 74 % 1010,1 hPa 0,0 l/m 0,0 km/h (0 Bft) N-NW 348 0 min 0,000 mm 0 W/m 8,8 C 13,3 C 1,6 km/h (1 Bft) 100 %
10.05.2016 03:20 13,2 C 13,2 C 13,3 C 74 % 1009,8 hPa 0,0 l/m 0,0 km/h (0 Bft) N 355 0 min 0,000 mm 0 W/m 8,7 C 13,2 C 1,6 km/h (1 Bft) 100 %
10.05.2016 03:30 13,2 C 13,2 C 13,2 C 75 % 1009,8 hPa 0,0 l/m 0,0 km/h (0 Bft) N 355 0 min 0,000 mm 0 W/m 8,9 C 13,2 C 0,0 km/h (0 Bft) 100 %
10.05.2016 03:40 13,0 C 13,0 C 13,2 C 76 % 1009,8 hPa 0,0 l/m 0,0 km/h (0 Bft) N 355 0 min 0,000 mm 0 W/m 8,9 C 13,0 C 1,6 km/h (1 Bft) 99 %
10.05.2016 03:50 12,7 C 12,7 C 13,0 C 77 % 1009,8 hPa 0,0 l/m 0,0 km/h (0 Bft) N-NW 333 0 min 0,000 mm 0 W/m 8,8 C 12,7 C 1,6 km/h (1 Bft) 100 %
10.05.2016 04:00 12,4 C 12,4 C 12,7 C 77 % 1009,7 hPa 0,0 l/m 0,0 km/h (0 Bft) N-NW 336 0 min 0,026 mm 0 W/m 8,5 C 12,4 C 1,6 km/h (1 Bft) 100 %
10.05.2016 04:10 12,2 C 12,2 C 12,4 C 78 % 1009,6 hPa 0,0 l/m 0,0 km/h (0 Bft) N-NW 340 0 min 0,000 mm 0 W/m 8,5 C 12,2 C 0,0 km/h (0 Bft) 100 %
10.05.2016 04:20 12,1 C 12,1 C 12,2 C 79 % 1009,5 hPa 0,0 l/m 0,0 km/h (0 Bft) N-NW 340 0 min 0,000 mm 0 W/m 8,6 C 12,1 C 1,6 km/h (1 Bft) 100 %
10.05.2016 04:30 11,9 C 11,9 C 12,1 C 79 % 1009,5 hPa 0,0 l/m 0,0 km/h (0 Bft) N-NW 340 0 min 0,000 mm 0 W/m 8,4 C 11,9 C 0,0 km/h (0 Bft) 100 %
10.05.2016 04:40 11,8 C 11,8 C 11,9 C 80 % 1009,6 hPa 0,0 l/m 0,0 km/h (0 Bft) N-NW 340 0 min 0,000 mm 0 W/m 8,5 C 11,8 C 0,0 km/h (0 Bft) 100 %
10.05.2016 04:50 11,8 C 11,8 C 11,8 C 79 % 1009,5 hPa 0,0 l/m 0,0 km/h (0 Bft) N-NW 340 0 min 0,000 mm 0 W/m 8,3 C 11,8 C 0,0 km/h (0 Bft) 100 %
10.05.2016 05:00 11,8 C 11,7 C 11,8 C 79 % 1009,6 hPa 0,0 l/m 0,0 km/h (0 Bft) N-NW 340 0 min 0,025 mm 0 W/m 8,3 C 11,8 C 0,0 km/h (0 Bft) 100 %
10.05.2016 05:10 11,8 C 11,8 C 11,8 C 80 % 1009,6 hPa 0,0 l/m 0,0 km/h (0 Bft) N-NW 340 0 min 0,000 mm 0 W/m 8,5 C 11,8 C 0,0 km/h (0 Bft) 100 %
10.05.2016 05:20 11,8 C 11,8 C 11,8 C 79 % 1009,5 hPa 0,0 l/m 0,0 km/h (0 Bft) N-NW 340 0 min 0,000 mm 0 W/m 8,3 C 11,8 C 0,0 km/h (0 Bft) 100 %
10.05.2016 05:30 11,7 C 11,7 C 11,8 C 80 % 1009,4 hPa 0,0 l/m 0,0 km/h (0 Bft) N-NW 340 0 min 0,000 mm 0 W/m 8,4 C 11,7 C 0,0 km/h (0 Bft) 100 %
10.05.2016 05:40 11,6 C 11,6 C 11,7 C 80 % 1009,5 hPa 0,0 l/m 0,0 km/h (0 Bft) N-NW 340 0 min 0,000 mm 0 W/m 8,3 C 11,6 C 0,0 km/h (0 Bft) 100 %
10.05.2016 05:50 11,5 C 11,5 C 11,6 C 81 % 1009,4 hPa 0,0 l/m 0,0 km/h (0 Bft) N-NW 340 0 min 0,000 mm 5 W/m 8,4 C 11,5 C 0,0 km/h (0 Bft) 99 %
10.05.2016 06:00 11,5 C 11,4 C 11,5 C 81 % 1009,4 hPa 0,0 l/m 0,0 km/h (0 Bft) N-NW 340 0 min 0,000 mm 7 W/m 8,4 C 11,5 C 0,0 km/h (0 Bft) 100 %
10.05.2016 06:10 11,4 C 11,4 C 11,5 C 81 % 1009,4 hPa 0,0 l/m 0,0 km/h (0 Bft) N-NW 340 0 min 0,000 mm 12 W/m 8,3 C 11,4 C 0,0 km/h (0 Bft) 100 %
10.05.2016 06:20 11,4 C 11,4 C 11,4 C 81 % 1009,3 hPa 0,0 l/m 0,0 km/h (0 Bft) N-NW 340 0 min 0,000 mm 23 W/m 8,3 C 11,4 C 0,0 km/h (0 Bft) 100 %
10.05.2016 06:30 11,4 C 11,4 C 11,4 C 82 % 1009,2 hPa 0,0 l/m 0,0 km/h (0 Bft) N-NW 340 0 min 0,000 mm 33 W/m 8,4 C 11,4 C 0,0 km/h (0 Bft) 100 %
10.05.2016 06:40 11,4 C 11,4 C 11,4 C 82 % 1009,1 hPa 0,0 l/m 0,0 km/h (0 Bft) N-NW 340 0 min 0,000 mm 46 W/m 8,4 C 11,4 C 0,0 km/h (0 Bft) 100 %
10.05.2016 06:50 11,4 C 11,4 C 11,4 C 83 % 1009,0 hPa 0,0 l/m 0,0 km/h (0 Bft) N-NW 340 0 min 0,000 mm 58 W/m 8,6 C 11,4 C 0,0 km/h (0 Bft) 100 %
10.05.2016 07:00 11,6 C 11,4 C 11,6 C 83 % 1008,9 hPa 0,0 l/m 0,0 km/h (0 Bft) N-NW 339 0 min 0,025 mm 69 W/m 8,8 C 11,6 C 0,0 km/h (0 Bft) 100 %
10.05.2016 07:10 11,8 C 11,6 C 11,8 C 83 % 1009,0 hPa 0,0 l/m 0,0 km/h (0 Bft) N-NW 335 0 min 0,000 mm 79 W/m 9,0 C 11,8 C 1,6 km/h (1 Bft) 100 %
10.05.2016 07:20 11,9 C 11,8 C 12,0 C 84 % 1008,9 hPa 0,0 l/m 0,0 km/h (0 Bft) N-NW 335 0 min 0,000 mm 83 W/m 9,3 C 11,9 C 1,6 km/h (1 Bft) 100 %
10.05.2016 07:30 12,2 C 11,9 C 12,2 C 83 % 1008,7 hPa 0,0 l/m 0,0 km/h (0 Bft) N-NW 335 0 min 0,000 mm 90 W/m 9,4 C 12,2 C 0,0 km/h (0 Bft) 100 %
10.05.2016 07:40 12,6 C 12,2 C 12,6 C 82 % 1008,7 hPa 0,0 l/m 0,0 km/h (0 Bft) N-NW 335 0 min 0,000 mm 98 W/m 9,6 C 12,6 C 0,0 km/h (0 Bft) 100 %
10.05.2016 07:50 12,9 C 12,6 C 12,9 C 82 % 1008,7 hPa 0,0 l/m 0,0 km/h (0 Bft) N-NW 335 0 min 0,000 mm 107 W/m 9,9 C 12,9 C 0,0 km/h (0 Bft) 100 %
10.05.2016 08:00 13,2 C 12,9 C 13,2 C 81 % 1008,6 hPa 0,0 l/m 0,0 km/h (0 Bft) N-NW 335 0 min 0,051 mm 118 W/m 10,0 C 13,2 C 0,0 km/h (0 Bft) 100 %
10.05.2016 08:10 13,6 C 13,2 C 13,6 C 82 % 1008,7 hPa 0,0 l/m 0,0 km/h (0 Bft) N-NW 335 0 min 0,000 mm 127 W/m 10,6 C 13,6 C 0,0 km/h (0 Bft) 100 %
10.05.2016 08:20 13,8 C 13,6 C 13,8 C 78 % 1008,7 hPa 0,0 l/m 0,0 km/h (0 Bft) N-NW 335 10 min 0,000 mm 188 W/m 10,0 C 13,8 C 0,0 km/h (0 Bft) 100 %
10.05.2016 08:30 14,3 C 13,8 C 14,3 C 78 % 1008,7 hPa 0,0 l/m 0,0 km/h (0 Bft) N-NW 335 10 min 0,000 mm 338 W/m 10,5 C 14,3 C 0,0 km/h (0 Bft) 99 %
10.05.2016 08:40 15,1 C 14,3 C 15,1 C 75 % 1008,7 hPa 0,0 l/m 0,0 km/h (0 Bft) N-NW 337 10 min 0,000 mm 383 W/m 10,7 C 15,1 C 0,0 km/h (0 Bft) 100 %
10.05.2016 08:50 16,2 C 15,1 C 16,2 C 72 % 1008,7 hPa 0,0 l/m 0,0 km/h (0 Bft) N-NW 341 10 min 0,000 mm 392 W/m 11,1 C 16,2 C 1,6 km/h (1 Bft) 100 %
10.05.2016 09:00 16,8 C 16,2 C 16,8 C 68 % 1008,7 hPa 0,0 l/m 0,2 km/h (0 Bft) N-NO 24 10 min 0,153 mm 376 W/m 10,9 C 16,8 C 6,4 km/h (2 Bft) 100 %
10.05.2016 09:10 17,3 C 16,8 C 17,3 C 66 % 1008,6 hPa 0,0 l/m 0,0 km/h (0 Bft) N-NO 17 10 min 0,000 mm 461 W/m 10,9 C 17,3 C 1,6 km/h (1 Bft) 100 %
10.05.2016 09:20 17,7 C 17,3 C 17,7 C 66 % 1008,6 hPa 0,0 l/m 0,0 km/h (0 Bft) N-NO 18 10 min 0,000 mm 294 W/m 11,3 C 17,7 C 0,0 km/h (0 Bft) 100 %
10.05.2016 09:30 18,2 C 17,7 C 18,2 C 66 % 1008,5 hPa 0,0 l/m 0,0 km/h (0 Bft) N-NO 19 10 min 0,000 mm 582 W/m 11,7 C 18,2 C 1,6 km/h (1 Bft) 100 %
10.05.2016 09:40 18,7 C 18,2 C 18,7 C 62 % 1008,4 hPa 0,0 l/m 0,0 km/h (0 Bft) O 79 10 min 0,000 mm 582 W/m 11,3 C 18,7 C 1,6 km/h (1 Bft) 100 %
10.05.2016 09:50 19,0 C 18,7 C 19,0 C 61 % 1008,4 hPa 0,0 l/m 0,0 km/h (0 Bft) O-NO 74 10 min 0,000 mm 568 W/m 11,3 C 19,0 C 1,6 km/h (1 Bft) 100 %
10.05.2016 10:00 19,2 C 19,0 C 19,2 C 61 % 1008,4 hPa 0,0 l/m 0,0 km/h (0 Bft) N-NO 21 10 min 0,279 mm 538 W/m 11,5 C 19,2 C 1,6 km/h (1 Bft) 100 %
10.05.2016 10:10 19,3 C 19,2 C 19,3 C 61 % 1008,4 hPa 0,0 l/m 0,0 km/h (0 Bft) N 5 10 min 0,000 mm 612 W/m 11,6 C 19,3 C 1,6 km/h (1 Bft) 100 %
10.05.2016 10:20 19,5 C 19,3 C 19,5 C 61 % 1008,4 hPa 0,0 l/m 0,3 km/h (0 Bft) NW 322 10 min 0,000 mm 715 W/m 11,8 C 19,5 C 6,4 km/h (2 Bft) 99 %
10.05.2016 10:30 19,8 C 19,5 C 19,8 C 60 % 1008,3 hPa 0,0 l/m 0,0 km/h (0 Bft) N-NW 346 10 min 0,000 mm 570 W/m 11,8 C 19,8 C 1,6 km/h (1 Bft) 100 %
10.05.2016 10:40 19,7 C 19,7 C 19,8 C 61 % 1008,2 hPa 0,0 l/m 0,0 km/h (0 Bft) N 349 10 min 0,000 mm 271 W/m 12,0 C 19,7 C 1,6 km/h (1 Bft) 100 %
10.05.2016 10:50 19,4 C 19,4 C 19,7 C 62 % 1008,2 hPa 0,0 l/m 0,0 km/h (0 Bft) NO 53 10 min 0,000 mm 276 W/m 11,9 C 19,4 C 1,6 km/h (1 Bft) 100 %
10.05.2016 11:00 19,3 C 19,3 C 19,4 C 66 % 1008,3 hPa 0,0 l/m 0,0 km/h (0 Bft) NO 46 10 min 0,279 mm 334 W/m 12,8 C 19,3 C 1,6 km/h (1 Bft) 100 %
10.05.2016 11:10 19,5 C 19,3 C 19,5 C 67 % 1008,3 hPa 0,0 l/m 0,0 km/h (0 Bft) NO 55 10 min 0,000 mm 436 W/m 13,2 C 19,5 C 1,6 km/h (1 Bft) 100 %
10.05.2016 11:20 19,8 C 19,5 C 19,8 C 63 % 1008,3 hPa 0,0 l/m 0,0 km/h (0 Bft) O 88 10 min 0,000 mm 285 W/m 12,5 C 19,8 C 1,6 km/h (1 Bft) 100 %
10.05.2016 11:30 19,6 C 19,6 C 19,8 C 63 % 1008,3 hPa 0,0 l/m 1,8 km/h (1 Bft) SO 130 10 min 0,000 mm 197 W/m 12,4 C 19,6 C 11,3 km/h (2 Bft) 100 %
10.05.2016 11:40 19,2 C 19,2 C 19,6 C 65 % 1008,3 hPa 0,0 l/m 1,0 km/h (0 Bft) O-SO 109 0 min 0,000 mm 139 W/m 12,5 C 19,2 C 9,7 km/h (2 Bft) 100 %
10.05.2016 11:50 18,9 C 18,9 C 19,2 C 68 % 1008,4 hPa 0,0 l/m 1,3 km/h (1 Bft) O-SO 115 0 min 0,000 mm 98 W/m 12,9 C 18,9 C 8,0 km/h (2 Bft) 99 %
10.05.2016 12:00 18,5 C 18,5 C 18,9 C 76 % 1008,6 hPa 0,2 l/m 0,0 km/h (0 Bft) O-SO 115 0 min 0,153 mm 104 W/m 14,2 C 18,5 C 0,0 km/h (0 Bft) 100 %
10.05.2016 12:10 17,9 C 17,9 C 18,5 C 79 % 1008,7 hPa 0,2 l/m 0,3 km/h (0 Bft) O-SO 115 0 min 0,000 mm 134 W/m 14,2 C 17,9 C 3,2 km/h (1 Bft) 100 %
10.05.2016 12:20 17,7 C 17,7 C 17,9 C 82 % 1008,7 hPa 0,0 l/m 0,0 km/h (0 Bft) O-SO 115 10 min 0,000 mm 178 W/m 14,6 C 17,7 C 0,0 km/h (0 Bft) 100 %
10.05.2016 12:30 17,4 C 17,4 C 17,7 C 84 % 1008,7 hPa 0,0 l/m 0,1 km/h (0 Bft) O-SO 115 10 min 0,000 mm 232 W/m 14,7 C 17,4 C 3,2 km/h (1 Bft) 100 %
10.05.2016 12:40 17,2 C 17,2 C 17,4 C 80 % 1008,8 hPa 0,0 l/m 0,0 km/h (0 Bft) O-SO 115 10 min 0,000 mm 230 W/m 13,7 C 17,2 C 1,6 km/h (1 Bft) 99 %
10.05.2016 12:50 17,3 C 17,2 C 17,3 C 84 % 1008,7 hPa 0,0 l/m 0,0 km/h (0 Bft) O-SO 117 10 min 0,000 mm 239 W/m 14,6 C 17,3 C 1,6 km/h (1 Bft) 100 %
10.05.2016 13:00 17,4 C 17,3 C 17,5 C 83 % 1008,8 hPa 0,0 l/m 0,0 km/h (0 Bft) O-SO 120 10 min 0,101 mm 230 W/m 14,5 C 17,4 C 0,0 km/h (0 Bft) 100 %
10.05.2016 13:10 17,6 C 17,4 C 17,6 C 80 % 1008,8 hPa 0,0 l/m 0,0 km/h (0 Bft) O-SO 121 10 min 0,000 mm 186 W/m 14,1 C 17,6 C 1,6 km/h (1 Bft) 100 %
10.05.2016 13:20 17,7 C 17,6 C 17,7 C 82 % 1008,8 hPa 0,0 l/m 0,0 km/h (0 Bft) SO 127 10 min 0,000 mm 172 W/m 14,6 C 17,7 C 1,6 km/h (1 Bft) 100 %
10.05.2016 13:30 17,6 C 17,6 C 17,7 C 81 % 1008,9 hPa 0,0 l/m 0,0 km/h (0 Bft) SO 127 10 min 0,000 mm 156 W/m 14,3 C 17,6 C 1,6 km/h (1 Bft) 100 %
10.05.2016 13:40 17,5 C 17,5 C 17,6 C 82 % 1009,0 hPa 0,2 l/m 0,4 km/h (0 Bft) SO 129 0 min 0,000 mm 144 W/m 14,4 C 17,5 C 3,2 km/h (1 Bft) 100 %
10.05.2016 13:50 17,5 C 17,5 C 17,6 C 83 % 1009,1 hPa 0,0 l/m 3,5 km/h (1 Bft) S-SW 201 10 min 0,000 mm 169 W/m 14,6 C 17,5 C 6,4 km/h (2 Bft) 100 %
10.05.2016 14:00 17,4 C 17,3 C 17,5 C 84 % 1009,2 hPa 0,0 l/m 0,4 km/h (0 Bft) S-SW 206 10 min 0,102 mm 185 W/m 14,7 C 17,4 C 4,8 km/h (1 Bft) 99 %
10.05.2016 14:10 17,4 C 17,3 C 17,4 C 84 % 1009,1 hPa 0,0 l/m 0,0 km/h (0 Bft) S-SW 206 10 min 0,000 mm 176 W/m 14,7 C 17,4 C 0,0 km/h (0 Bft) 97 %
10.05.2016 14:20 17,3 C 17,3 C 17,4 C 82 % 1009,1 hPa 0,0 l/m 0,0 km/h (0 Bft) S-SW 206 0 min 0,000 mm 132 W/m 14,2 C 17,3 C 0,0 km/h (0 Bft) 97 %
10.05.2016 14:30 17,3 C 17,2 C 17,3 C 84 % 1009,1 hPa 0,2 l/m 0,0 km/h (0 Bft) S-SW 206 0 min 0,000 mm 137 W/m 14,6 C 17,3 C 0,0 km/h (0 Bft) 98 %
10.05.2016 14:40 17,4 C 17,3 C 17,4 C 84 % 1009,2 hPa 0,0 l/m 0,4 km/h (0 Bft) S-SW 206 0 min 0,000 mm 130 W/m 14,7 C 17,4 C 3,2 km/h (1 Bft) 97 %
10.05.2016 14:50 17,3 C 17,3 C 17,4 C 83 % 1009,2 hPa 0,0 l/m 0,0 km/h (0 Bft) S-SW 206 0 min 0,000 mm 123 W/m 14,4 C 17,3 C 1,6 km/h (1 Bft) 98 %
10.05.2016 15:00 17,2 C 17,2 C 17,3 C 81 % 1009,3 hPa 0,0 l/m 0,0 km/h (0 Bft) S-SW 206 0 min 0,076 mm 146 W/m 13,9 C 17,2 C 1,6 km/h (1 Bft) 97 %
10.05.2016 15:10 16,8 C 16,8 C 17,2 C 82 % 1009,4 hPa 0,0 l/m 2,1 km/h (1 Bft) S-SW 196 0 min 0,000 mm 91 W/m 13,7 C 16,8 C 4,8 km/h (1 Bft) 97 %
10.05.2016 15:20 16,5 C 16,5 C 16,8 C 84 % 1009,4 hPa 0,4 l/m 0,1 km/h (0 Bft) S-SW 196 0 min 0,000 mm 79 W/m 13,8 C 16,5 C 3,2 km/h (1 Bft) 97 %
10.05.2016 15:30 16,2 C 16,2 C 16,5 C 87 % 1009,4 hPa 0,2 l/m 0,0 km/h (0 Bft) S-SW 196 0 min 0,000 mm 67 W/m 14,0 C 16,2 C 0,0 km/h (0 Bft) 98 %
10.05.2016 15:40 15,9 C 15,9 C 16,2 C 87 % 1009,3 hPa 0,2 l/m 0,0 km/h (0 Bft) S-SW 196 0 min 0,000 mm 72 W/m 13,7 C 15,9 C 1,6 km/h (1 Bft) 97 %
10.05.2016 15:50 15,8 C 15,8 C 15,9 C 88 % 1009,2 hPa 0,4 l/m 0,0 km/h (0 Bft) S-SW 196 0 min 0,000 mm 76 W/m 13,8 C 15,8 C 0,0 km/h (0 Bft) 97 %
10.05.2016 16:00 15,8 C 15,8 C 15,8 C 89 % 1009,2 hPa 0,0 l/m 0,0 km/h (0 Bft) S-SW 196 0 min 0,051 mm 83 W/m 14,0 C 15,8 C 0,0 km/h (0 Bft) 98 %
10.05.2016 16:10 15,8 C 15,8 C 15,9 C 89 % 1009,3 hPa 0,2 l/m 0,0 km/h (0 Bft) S-SW 196 0 min 0,000 mm 88 W/m 14,0 C 15,8 C 0,0 km/h (0 Bft) 97 %
10.05.2016 16:20 15,8 C 15,8 C 15,8 C 89 % 1009,3 hPa 0,2 l/m 0,0 km/h (0 Bft) S-SW 196 0 min 0,000 mm 102 W/m 14,0 C 15,8 C 0,0 km/h (0 Bft) 98 %
10.05.2016 16:30 15,9 C 15,8 C 15,9 C 89 % 1009,4 hPa 0,0 l/m 0,8 km/h (0 Bft) SW 217 0 min 0,000 mm 107 W/m 14,1 C 15,9 C 6,4 km/h (2 Bft) 97 %
10.05.2016 16:40 15,8 C 15,8 C 15,9 C 89 % 1009,2 hPa 0,2 l/m 3,8 km/h (1 Bft) W-SW 250 0 min 0,000 mm 98 W/m 14,0 C 15,8 C 9,7 km/h (2 Bft) 97 %
10.05.2016 16:50 15,6 C 15,6 C 15,8 C 89 % 1009,1 hPa 0,0 l/m 1,7 km/h (1 Bft) W 260 0 min 0,000 mm 102 W/m 13,8 C 15,6 C 9,7 km/h (2 Bft) 98 %
10.05.2016 17:00 15,6 C 15,6 C 15,6 C 89 % 1009,2 hPa 0,0 l/m 0,1 km/h (0 Bft) SW 221 0 min 0,051 mm 105 W/m 13,8 C 15,6 C 6,4 km/h (2 Bft) 97 %
10.05.2016 17:10 15,6 C 15,5 C 15,6 C 89 % 1009,0 hPa 0,2 l/m 0,0 km/h (0 Bft) SW 221 0 min 0,000 mm 104 W/m 13,8 C 15,6 C 1,6 km/h (1 Bft) 98 %
10.05.2016 17:20 15,4 C 15,4 C 15,6 C 89 % 1009,1 hPa 0,0 l/m 0,0 km/h (0 Bft) SW 221 0 min 0,000 mm 97 W/m 13,6 C 15,4 C 0,0 km/h (0 Bft) 97 %
10.05.2016 17:30 15,4 C 15,4 C 15,4 C 89 % 1008,8 hPa 0,0 l/m 0,0 km/h (0 Bft) SW 221 0 min 0,000 mm 97 W/m 13,6 C 15,4 C 1,6 km/h (1 Bft) 98 %
10.05.2016 17:40 15,4 C 15,4 C 15,5 C 89 % 1008,9 hPa 0,0 l/m 0,0 km/h (0 Bft) SW 221 0 min 0,000 mm 77 W/m 13,6 C 15,4 C 1,6 km/h (1 Bft) 97 %
10.05.2016 17:50 15,2 C 15,2 C 15,4 C 89 % 1008,9 hPa 0,0 l/m 0,0 km/h (0 Bft) SW 221 0 min 0,000 mm 65 W/m 13,4 C 15,2 C 1,6 km/h (1 Bft) 97 %
10.05.2016 18:00 15,1 C 15,1 C 15,2 C 89 % 1008,5 hPa 0,0 l/m 0,0 km/h (0 Bft) S-SW 206 0 min 0,051 mm 81 W/m 13,3 C 15,1 C 1,6 km/h (1 Bft) 97 %
10.05.2016 18:10 15,1 C 15,1 C 15,1 C 89 % 1008,6 hPa 0,0 l/m 0,0 km/h (0 Bft) S-SW 201 0 min 0,000 mm 62 W/m 13,3 C 15,1 C 1,6 km/h (1 Bft) 97 %
10.05.2016 18:20 15,1 C 15,1 C 15,1 C 89 % 1008,5 hPa 0,0 l/m 0,0 km/h (0 Bft) S-SW 201 0 min 0,000 mm 67 W/m 13,3 C 15,1 C 0,0 km/h (0 Bft) 98 %
10.05.2016 18:30 15,1 C 15,1 C 15,1 C 90 % 1008,2 hPa 0,0 l/m 0,0 km/h (0 Bft) S-SW 201 0 min 0,000 mm 62 W/m 13,5 C 15,1 C 1,6 km/h (1 Bft) 97 %
10.05.2016 18:40 15,1 C 15,1 C 15,1 C 90 % 1008,0 hPa 0,0 l/m 0,0 km/h (0 Bft) S-SW 195 0 min 0,000 mm 44 W/m 13,5 C 15,1 C 1,6 km/h (1 Bft) 97 %
10.05.2016 18:50 14,9 C 14,9 C 15,1 C 90 % 1007,9 hPa 0,0 l/m 4,0 km/h (1 Bft) S-SO 163 0 min 0,000 mm 37 W/m 13,3 C 14,9 C 8,0 km/h (2 Bft) 98 %
10.05.2016 19:00 14,7 C 14,7 C 14,9 C 90 % 1007,9 hPa 0,0 l/m 2,2 km/h (1 Bft) O-SO 120 0 min 0,025 mm 19 W/m 13,1 C 14,7 C 8,0 km/h (2 Bft) 97 %
10.05.2016 19:10 14,7 C 14,7 C 14,7 C 90 % 1007,9 hPa 0,0 l/m 0,0 km/h (0 Bft) O-SO 121 0 min 0,000 mm 5 W/m 13,1 C 14,7 C 1,6 km/h (1 Bft) 98 %
10.05.2016 19:20 14,7 C 14,7 C 14,8 C 90 % 1008,0 hPa 0,0 l/m 1,5 km/h (1 Bft) O-SO 110 0 min 0,000 mm 0 W/m 13,1 C 14,7 C 6,4 km/h (2 Bft) 97 %
10.05.2016 19:30 14,7 C 14,6 C 14,7 C 90 % 1008,0 hPa 0,0 l/m 0,2 km/h (0 Bft) SO 140 0 min 0,000 mm 0 W/m 13,1 C 14,7 C 4,8 km/h (1 Bft) 98 %
10.05.2016 19:40 14,7 C 14,7 C 14,7 C 90 % 1008,0 hPa 0,0 l/m 0,0 km/h (0 Bft) SO 138 0 min 0,000 mm 0 W/m 13,1 C 14,7 C 1,6 km/h (1 Bft) 97 %
10.05.2016 19:50 14,7 C 14,6 C 14,7 C 90 % 1008,0 hPa 0,0 l/m 0,0 km/h (0 Bft) SO 138 0 min 0,000 mm 0 W/m 13,1 C 14,7 C 0,0 km/h (0 Bft) 97 %
10.05.2016 20:00 14,7 C 14,7 C 14,7 C 90 % 1008,0 hPa 0,0 l/m 0,0 km/h (0 Bft) SO 138 0 min 0,000 mm 0 W/m 13,1 C 14,7 C 1,6 km/h (1 Bft) 98 %
10.05.2016 20:10 14,7 C 14,7 C 14,7 C 90 % 1008,0 hPa 0,0 l/m 0,2 km/h (0 Bft) SO 138 0 min 0,000 mm 0 W/m 13,1 C 14,7 C 3,2 km/h (1 Bft) 96 %
10.05.2016 20:20 14,6 C 14,6 C 14,7 C 90 % 1008,2 hPa 0,2 l/m 0,9 km/h (0 Bft) S-SO 160 0 min 0,000 mm 0 W/m 13,0 C 14,6 C 4,8 km/h (1 Bft) 98 %
10.05.2016 20:30 14,6 C 14,6 C 14,6 C 90 % 1008,1 hPa 0,0 l/m 0,5 km/h (0 Bft) S-SO 167 0 min 0,000 mm 0 W/m 13,0 C 14,6 C 6,4 km/h (2 Bft) 97 %
10.05.2016 20:40 14,5 C 14,5 C 14,6 C 90 % 1008,2 hPa 0,0 l/m 0,0 km/h (0 Bft) S-SO 167 0 min 0,000 mm 5 W/m 12,9 C 14,5 C 1,6 km/h (1 Bft) 97 %
10.05.2016 20:50 14,4 C 14,4 C 14,5 C 90 % 1008,1 hPa 0,0 l/m 0,0 km/h (0 Bft) S-SO 167 0 min 0,000 mm 0 W/m 12,8 C 14,4 C 0,0 km/h (0 Bft) 97 %
10.05.2016 21:00 14,3 C 14,3 C 14,4 C 90 % 1008,2 hPa 0,0 l/m 0,2 km/h (0 Bft) S-SO 167 0 min 0,000 mm 0 W/m 12,7 C 14,3 C 1,6 km/h (1 Bft) 98 %
10.05.2016 21:10 14,3 C 14,3 C 14,3 C 90 % 1008,4 hPa 0,0 l/m 0,0 km/h (0 Bft) S-SO 167 0 min 0,000 mm 0 W/m 12,7 C 14,3 C 0,0 km/h (0 Bft) 97 %
10.05.2016 21:20 14,3 C 14,3 C 14,3 C 90 % 1008,5 hPa 0,0 l/m 0,0 km/h (0 Bft) S-SO 167 0 min 0,000 mm 0 W/m 12,7 C 14,3 C 0,0 km/h (0 Bft) 97 %
10.05.2016 21:30 14,2 C 14,2 C 14,3 C 90 % 1008,5 hPa 0,0 l/m 0,0 km/h (0 Bft) S-SO 167 0 min 0,000 mm 0 W/m 12,6 C 14,2 C 0,0 km/h (0 Bft) 98 %
10.05.2016 21:40 14,2 C 14,2 C 14,2 C 90 % 1008,6 hPa 0,0 l/m 0,0 km/h (0 Bft) S-SO 167 0 min 0,000 mm 0 W/m 12,6 C 14,2 C 0,0 km/h (0 Bft) 97 %
10.05.2016 21:50 14,1 C 14,1 C 14,2 C 91 % 1008,5 hPa 0,0 l/m 0,0 km/h (0 Bft) S-SO 167 0 min 0,000 mm 0 W/m 12,7 C 14,1 C 0,0 km/h (0 Bft) 98 %
10.05.2016 22:00 14,1 C 14,1 C 14,1 C 90 % 1008,5 hPa 0,0 l/m 0,0 km/h (0 Bft) S-SO 167 0 min 0,000 mm 0 W/m 12,5 C 14,1 C 1,6 km/h (1 Bft) 97 %
10.05.2016 22:10 14,0 C 14,0 C 14,1 C 90 % 1008,4 hPa 0,0 l/m 0,4 km/h (0 Bft) S-SO 167 0 min 0,000 mm 0 W/m 12,4 C 14,0 C 1,6 km/h (1 Bft) 97 %
10.05.2016 22:20 13,9 C 13,9 C 14,0 C 90 % 1008,4 hPa 0,0 l/m 0,0 km/h (0 Bft) S-SO 167 0 min 0,000 mm 0 W/m 12,3 C 13,9 C 0,0 km/h (0 Bft) 97 %
10.05.2016 22:30 13,8 C 13,8 C 13,9 C 91 % 1008,4 hPa 0,0 l/m 0,0 km/h (0 Bft) S-SO 167 0 min 0,000 mm 0 W/m 12,4 C 13,8 C 1,6 km/h (1 Bft) 97 %
10.05.2016 22:40 13,6 C 13,6 C 13,8 C 90 % 1008,3 hPa 0,0 l/m 0,0 km/h (0 Bft) S-SO 167 0 min 0,000 mm 0 W/m 12,0 C 13,6 C 1,6 km/h (1 Bft) 98 %
10.05.2016 22:50 13,4 C 13,4 C 13,6 C 91 % 1008,3 hPa 0,0 l/m 0,0 km/h (0 Bft) S-SO 167 0 min 0,000 mm 0 W/m 12,0 C 13,4 C 0,0 km/h (0 Bft) 96 %
10.05.2016 23:00 13,2 C 13,2 C 13,4 C 91 % 1008,3 hPa 0,0 l/m 0,5 km/h (0 Bft) S 173 0 min 0,000 mm 0 W/m 11,8 C 13,2 C 3,2 km/h (1 Bft) 97 %
10.05.2016 23:10 13,1 C 13,1 C 13,2 C 91 % 1008,2 hPa 0,0 l/m 0,3 km/h (0 Bft) S 173 0 min 0,000 mm 0 W/m 11,7 C 13,1 C 3,2 km/h (1 Bft) 97 %
10.05.2016 23:20 12,9 C 12,9 C 13,1 C 91 % 1008,2 hPa 0,0 l/m 0,0 km/h (0 Bft) S 173 0 min 0,000 mm 0 W/m 11,5 C 12,9 C 0,0 km/h (0 Bft) 97 %
10.05.2016 23:30 12,9 C 12,9 C 13,0 C 91 % 1008,3 hPa 0,0 l/m 0,1 km/h (0 Bft) S 173 0 min 0,000 mm 0 W/m 11,5 C 12,9 C 3,2 km/h (1 Bft) 97 %
10.05.2016 23:40 12,7 C 12,7 C 12,9 C 91 % 1008,3 hPa 0,0 l/m 0,0 km/h (0 Bft) S 173 0 min 0,000 mm 0 W/m 11,3 C 12,7 C 0,0 km/h (0 Bft) 97 %
10.05.2016 23:50 12,7 C 12,7 C 12,7 C 91 % 1008,2 hPa 0,0 l/m 0,1 km/h (0 Bft) S 173 0 min 0,000 mm 0 W/m 11,3 C 12,7 C 3,2 km/h (1 Bft) 97 %
_ Min-Zeit 06:00 06:00 06:20 00:00 18:50 - 02:00 - - - - - 06:10 06:10 02:50 00:00
Minimum _ 11,4 C 11,4 C 11,4 C 60 % 1007,9 hPa - 0,0 km/h (0 Bft) - - - - - 8,3 C 11,4 C 0,0 km/h (0 Bft) 75 %
_ Max-Zeit 10:30 10:40 10:30 21:50 00:00 15:20 18:50 - - 08:20 10:00 10:20 12:30 10:30 00:10 00:10
Maximum _ 19,8 C 19,7 C 19,8 C 91 % 1010,7 hPa 0,4 l/m 4,0 km/h
S-SO (1 Bft)
- - 10 min 0,279 mm 715 W/m 14,7 C 19,8 C 11,3 km/h
NO (2 Bft)
100 %
Durchschnitt _ 15,2 C 15,1 C 15,3 C 80 % 1009,0 hPa #3,0 l/m 0,2 km/h (0 Bft) O-SO - #5:10 h #1,524 mm 179 W/m 11,5 C 15,2 C 2,3 km/h (1 Bft) 99 %
PRIVATE WETTERSTATION BILLIGHEIM-ALLFELD - www.neckar-odenwald-wetter.de - Holger Sonntag